createdAt,value
2019-04-06T00:00:36.214Z,11.97
2019-04-06T00:02:40.528Z,13.63
2019-04-06T00:04:44.418Z,16.73
2019-04-06T00:06:48.594Z,31.70
2019-04-06T00:08:52.487Z,11.63
2019-04-06T00:10:56.377Z,11.50
2019-04-06T00:13:00.293Z,52.33
2019-04-06T00:15:04.989Z,8.23
2019-04-06T00:17:09.008Z,79.17
2019-04-06T00:19:12.965Z,16.97
2019-04-06T00:21:16.853Z,13.63
2019-04-06T00:23:20.912Z,14.47
2019-04-06T00:25:24.812Z,15.93
2019-04-06T00:27:28.710Z,23.67
2019-04-06T00:29:32.628Z,22.47
2019-04-06T00:31:47.032Z,15.20
2019-04-06T00:33:50.949Z,10.63
2019-04-06T00:35:54.809Z,8.83
2019-04-06T00:37:58.715Z,28.73
2019-04-06T00:40:02.630Z,11.30
2019-04-06T00:42:06.513Z,12.67
2019-04-06T00:44:10.491Z,16.03
2019-04-06T00:46:14.386Z,8.83
2019-04-06T00:48:18.269Z,6.73
2019-04-06T00:50:22.205Z,14.57
2019-04-06T00:52:26.082Z,21.63
2019-04-06T00:54:29.969Z,12.87
2019-04-06T00:56:33.888Z,14.10
2019-04-06T00:58:37.795Z,7.70
2019-04-06T01:00:41.702Z,9.73
2019-04-06T01:02:45.591Z,13.40
2019-04-06T01:04:49.522Z,13.37
2019-04-06T01:06:53.398Z,14.03
2019-04-06T01:08:57.305Z,12.43
2019-04-06T01:11:01.270Z,15.50
2019-04-06T01:13:05.137Z,23.10
2019-04-06T01:15:09.315Z,23.30
2019-04-06T01:17:13.277Z,23.93
2019-04-06T01:19:17.245Z,27.57
2019-04-06T01:21:21.119Z,36.33
2019-04-06T01:23:25.040Z,32.87
2019-04-06T01:25:28.930Z,31.63
2019-04-06T01:27:32.861Z,36.63
2019-04-06T01:29:36.775Z,45.33
2019-04-06T01:31:40.653Z,44.43
2019-04-06T01:33:44.605Z,52.80
2019-04-06T01:35:48.512Z,52.57
2019-04-06T01:37:52.517Z,62.73
2019-04-06T01:39:56.570Z,52.13
2019-04-06T01:42:00.487Z,54.50
2019-04-06T01:44:04.440Z,50.17
2019-04-06T01:46:16.354Z,56.67
2019-04-06T01:48:20.982Z,57.10
2019-04-06T01:50:24.880Z,51.27
2019-04-06T01:52:28.748Z,57.63
2019-04-06T01:54:32.809Z,49.77
2019-04-06T01:56:36.834Z,64.30
2019-04-06T01:58:40.826Z,56.97
2019-04-06T02:00:46.337Z,55.97
2019-04-06T02:02:57.210Z,52.40
2019-04-06T02:05:01.224Z,51.80
2019-04-06T02:07:05.216Z,53.10
2019-04-06T02:09:09.217Z,48.87
2019-04-06T02:11:13.203Z,49.60
2019-04-06T02:13:17.098Z,61.40
2019-04-06T02:15:21.014Z,62.27
2019-04-06T02:17:24.886Z,51.73
2019-04-06T02:19:28.790Z,45.77
2019-04-06T02:21:32.752Z,47.33
2019-04-06T02:23:36.653Z,58.40
2019-04-06T02:25:40.568Z,56.30
2019-04-06T02:27:44.485Z,63.50
2019-04-06T02:29:49.935Z,61.07
2019-04-06T02:32:07.423Z,51.17
2019-04-06T02:34:18.805Z,60.77
2019-04-06T02:36:29.801Z,62.87
2019-04-06T02:38:37.944Z,62.83
2019-04-06T02:40:46.135Z,67.90
2019-04-06T02:42:54.635Z,68.27
2019-04-06T02:44:58.526Z,62.50
2019-04-06T02:47:02.405Z,64.67
2019-04-06T02:49:06.310Z,74.27
2019-04-06T02:51:10.188Z,64.90
2019-04-06T02:53:14.464Z,67.40
2019-04-06T02:55:18.550Z,72.77
2019-04-06T02:57:22.502Z,74.93
2019-04-06T02:59:26.422Z,77.37
2019-04-06T03:01:30.323Z,85.37
2019-04-06T03:03:34.248Z,81.80
2019-04-06T03:05:38.141Z,77.27
2019-04-06T03:07:42.061Z,82.97
2019-04-06T03:09:45.971Z,73.67
2019-04-06T03:11:49.855Z,85.40
2019-04-06T03:13:53.765Z,88.10
2019-04-06T03:15:57.780Z,84.17
2019-04-06T03:18:01.836Z,82.93
2019-04-06T03:20:07.593Z,75.97
2019-04-06T03:22:11.486Z,93.20
2019-04-06T03:24:15.430Z,90.20
2019-04-06T03:26:19.305Z,90.97
2019-04-06T03:28:24.637Z,85.73
2019-04-06T03:30:28.982Z,82.30
2019-04-06T03:32:33.076Z,87.37
2019-04-06T03:34:36.976Z,90.93
2019-04-06T03:36:40.999Z,73.90
2019-04-06T03:38:44.905Z,89.20
2019-04-06T03:40:48.802Z,90.33
2019-04-06T03:42:52.757Z,86.17
2019-04-06T03:44:56.649Z,80.27
2019-04-06T03:47:00.635Z,82.33
2019-04-06T03:49:04.547Z,84.70
2019-04-06T03:51:08.670Z,94.90
2019-04-06T03:53:12.661Z,82.40
2019-04-06T03:55:16.632Z,83.83
2019-04-06T03:57:20.564Z,95.83
2019-04-06T03:59:24.448Z,80.17
2019-04-06T04:01:28.728Z,76.40
2019-04-06T04:03:32.650Z,88.20
2019-04-06T04:05:36.597Z,107.73
2019-04-06T04:07:40.516Z,97.70
2019-04-06T04:09:45.229Z,99.30
2019-04-06T04:11:49.120Z,92.83
2019-04-06T04:13:53.194Z,100.23
2019-04-06T04:15:58.141Z,93.33
2019-04-06T04:18:02.107Z,90.97
2019-04-06T04:20:09.113Z,102.22
2019-04-06T04:22:13.015Z,102.53
2019-04-06T04:24:16.996Z,115.83
2019-04-06T04:26:20.909Z,121.93
2019-04-06T04:28:24.872Z,126.03
2019-04-06T04:30:32.957Z,109.47
2019-04-06T04:32:34.375Z,128.43
2019-04-06T04:34:38.314Z,125.00
2019-04-06T04:36:42.516Z,123.90
2019-04-06T04:38:48.815Z,117.77
2019-04-06T04:40:52.738Z,124.60
2019-04-06T04:42:59.280Z,137.57
2019-04-06T04:45:03.418Z,121.57
2019-04-06T04:47:07.382Z,116.17
2019-04-06T04:49:11.267Z,127.97
2019-04-06T04:51:15.452Z,132.40
2019-04-06T04:53:19.606Z,123.30
2019-04-06T04:55:23.565Z,103.40
2019-04-06T04:57:39.655Z,110.20
2019-04-06T04:59:35.008Z,119.77
2019-04-06T05:01:38.914Z,131.93
2019-04-06T05:03:42.837Z,140.83
2019-04-06T05:05:46.838Z,157.97
2019-04-06T05:07:50.718Z,141.83
2019-04-06T05:09:54.665Z,125.10
2019-04-06T05:11:59.362Z,157.43
2019-04-06T05:14:39.690Z,139.60
2019-04-06T05:16:43.569Z,156.20
2019-04-06T05:18:47.532Z,161.40
2019-04-06T05:20:51.433Z,164.10
2019-04-06T05:22:58.747Z,167.40
2019-04-06T05:25:03.043Z,158.70
2019-04-06T05:27:07.173Z,163.47
2019-04-06T05:29:11.837Z,147.23
2019-04-06T05:31:15.759Z,163.63
2019-04-06T05:33:20.589Z,162.30
2019-04-06T05:35:25.102Z,155.43
2019-04-06T05:37:28.996Z,123.70
2019-04-06T05:39:32.877Z,139.43
2019-04-06T05:41:36.830Z,142.70
2019-04-06T05:43:41.010Z,129.07
2019-04-06T05:45:44.885Z,141.03
2019-04-06T05:47:48.947Z,162.37
2019-04-06T05:49:53.621Z,143.73
2019-04-06T05:51:57.506Z,144.80
2019-04-06T05:54:01.424Z,150.70
2019-04-06T05:56:07.903Z,134.43
2019-04-06T05:58:12.131Z,149.77
2019-04-06T06:00:16.721Z,140.30
2019-04-06T06:02:20.626Z,130.60
2019-04-06T06:04:24.865Z,135.53
2019-04-06T06:06:28.774Z,132.90
2019-04-06T06:08:32.664Z,124.57
2019-04-06T06:10:40.733Z,132.20
2019-04-06T06:12:44.938Z,137.83
2019-04-06T06:14:48.809Z,140.40
2019-04-06T06:16:52.763Z,136.23
2019-04-06T06:18:56.638Z,137.17
2019-04-06T06:21:01.231Z,130.07
2019-04-06T06:23:05.128Z,130.03
2019-04-06T06:25:09.114Z,118.03
2019-04-06T06:27:13.069Z,130.83
2019-04-06T06:29:16.962Z,110.23
2019-04-06T06:31:20.933Z,123.83
2019-04-06T06:33:24.890Z,127.63
2019-04-06T06:35:28.786Z,122.43
2019-04-06T06:37:33.923Z,96.40
2019-04-06T06:39:38.169Z,118.73
2019-04-06T06:41:42.061Z,120.13
2019-04-06T06:43:46.166Z,117.20
2019-04-06T06:45:50.174Z,125.13
2019-04-06T06:47:54.050Z,122.80
2019-04-06T06:49:57.993Z,104.47
2019-04-06T06:52:02.008Z,114.67
2019-04-06T06:54:07.448Z,119.93
2019-04-06T06:56:11.497Z,120.73
2019-04-06T06:58:24.850Z,128.97
2019-04-06T07:00:21.702Z,112.73
2019-04-06T07:02:25.585Z,114.00
2019-04-06T07:04:29.540Z,93.13
2019-04-06T07:06:33.413Z,115.17
2019-04-06T07:08:39.553Z,126.93
2019-04-06T07:10:42.972Z,101.40
2019-04-06T07:12:46.895Z,108.50
2019-04-06T07:14:50.821Z,114.97
2019-04-06T07:16:54.766Z,115.10
2019-04-06T07:18:58.689Z,108.47
2019-04-06T07:21:02.577Z,106.17
2019-04-06T07:23:06.493Z,98.43
2019-04-06T07:25:10.416Z,110.50
2019-04-06T07:27:14.313Z,106.00
2019-04-06T07:29:18.230Z,95.03
2019-04-06T07:31:22.156Z,107.30
2019-04-06T07:33:28.934Z,107.47
2019-04-06T07:35:35.449Z,99.03
2019-04-06T07:37:39.361Z,106.67
2019-04-06T07:39:43.485Z,95.00
2019-04-06T07:41:47.380Z,106.57
2019-04-06T07:43:51.350Z,99.87
2019-04-06T07:45:55.443Z,97.70
2019-04-06T07:47:59.325Z,100.57
2019-04-06T07:50:03.731Z,101.97
2019-04-06T07:52:09.312Z,88.37
2019-04-06T07:54:13.195Z,99.10
2019-04-06T07:56:17.099Z,91.13
2019-04-06T07:58:21.030Z,91.57
2019-04-06T08:00:25.025Z,86.90
2019-04-06T08:02:28.961Z,85.03
2019-04-06T08:04:32.941Z,80.40
2019-04-06T08:06:37.064Z,84.20
2019-04-06T08:08:41.196Z,76.30
2019-04-06T08:10:45.082Z,80.10
2019-04-06T08:12:49.020Z,79.40
2019-04-06T08:14:52.913Z,80.07
2019-04-06T08:16:56.829Z,68.93
2019-04-06T08:19:01.938Z,84.23
2019-04-06T08:21:06.679Z,87.80
2019-04-06T08:23:10.582Z,68.37
2019-04-06T08:25:14.902Z,86.87
2019-04-06T08:27:18.792Z,90.87
2019-04-06T08:29:22.704Z,71.33
2019-04-06T08:31:27.818Z,76.77
2019-04-06T08:33:31.779Z,80.60
2019-04-06T08:35:35.839Z,76.10
2019-04-06T08:37:39.938Z,83.47
2019-04-06T08:39:44.090Z,76.77
2019-04-06T08:41:48.832Z,67.60
2019-04-06T08:43:52.910Z,83.07
2019-04-06T08:45:57.075Z,71.40
2019-04-06T08:48:01.058Z,86.97
2019-04-06T08:50:08.788Z,74.03
2019-04-06T08:52:12.859Z,49.80
2019-04-06T08:54:16.752Z,62.20
2019-04-06T08:56:20.869Z,60.93
2019-04-06T08:58:27.679Z,62.97
2019-04-06T09:00:31.762Z,43.03
2019-04-06T09:02:37.186Z,36.90
2019-04-06T09:04:41.051Z,82.60
2019-04-06T09:06:44.968Z,68.67
2019-04-06T09:08:48.870Z,71.03
2019-04-06T09:10:52.786Z,74.17
2019-04-06T09:12:58.047Z,75.67
2019-04-06T09:15:01.933Z,64.23
2019-04-06T09:17:06.084Z,77.73
2019-04-06T09:19:10.158Z,80.90
2019-04-06T09:21:14.118Z,68.67
2019-04-06T09:23:18.105Z,72.50
2019-04-06T09:25:22.695Z,73.20
2019-04-06T09:27:27.181Z,79.10
2019-04-06T09:29:31.167Z,73.40
2019-04-06T09:31:36.952Z,47.43
2019-04-06T09:33:41.173Z,78.23
2019-04-06T09:35:45.088Z,80.47
2019-04-06T09:37:49.257Z,76.37
2019-04-06T09:39:53.208Z,77.30
2019-04-06T09:41:57.109Z,86.83
2019-04-06T09:44:01.079Z,74.20
2019-04-06T09:46:21.663Z,79.33
2019-04-06T09:48:33.154Z,46.37
2019-04-06T09:50:38.671Z,73.90
2019-04-06T09:53:00.851Z,92.97
2019-04-06T09:55:11.227Z,86.17
2019-04-06T09:57:22.617Z,86.63
2019-04-06T09:59:43.337Z,85.77
2019-04-06T10:02:06.190Z,72.57
2019-04-06T10:04:14.420Z,80.80
2019-04-06T10:06:25.829Z,59.00
2019-04-06T10:08:34.174Z,52.60
2019-04-06T10:10:45.626Z,49.63
2019-04-06T10:13:07.796Z,76.83
2019-04-06T10:15:30.297Z,57.53
2019-04-06T10:17:52.603Z,73.30
2019-04-06T10:20:03.773Z,52.83
2019-04-06T10:22:15.320Z,70.33
2019-04-06T10:24:20.840Z,64.40
2019-04-06T10:26:26.345Z,67.73
2019-04-06T10:28:37.641Z,65.47
2019-04-06T10:30:59.833Z,49.60
2019-04-06T10:33:07.933Z,70.20
2019-04-06T10:35:16.198Z,62.57
2019-04-06T10:37:24.618Z,61.93
2019-04-06T10:39:46.873Z,75.73
2019-04-06T10:41:55.176Z,68.87
2019-04-06T10:44:16.137Z,68.37
2019-04-06T10:46:37.736Z,70.77
2019-04-06T10:48:49.154Z,58.60
2019-04-06T10:51:11.151Z,82.70
2019-04-06T10:53:23.028Z,79.60
2019-04-06T10:55:44.728Z,55.80
2019-04-06T10:57:50.336Z,34.67
2019-04-06T11:00:02.289Z,60.40
2019-04-06T11:02:19.361Z,47.37
2019-04-06T11:04:30.765Z,73.93
2019-04-06T11:06:36.331Z,65.93
2019-04-06T11:08:57.992Z,49.47
2019-04-06T11:11:03.468Z,63.40
2019-04-06T11:13:14.862Z,57.77
2019-04-06T11:15:36.770Z,56.63
2019-04-06T11:17:48.188Z,63.37
2019-04-06T11:20:10.046Z,68.23
2019-04-06T11:22:31.089Z,77.73
2019-04-06T11:24:48.976Z,69.00
2019-04-06T11:26:57.136Z,50.00
2019-04-06T11:29:05.627Z,45.90
2019-04-06T11:31:17.023Z,66.63
2019-04-06T11:33:22.931Z,63.27
2019-04-06T11:35:44.933Z,55.93
2019-04-06T11:38:05.529Z,61.67
2019-04-06T11:40:23.033Z,52.03
2019-04-06T11:42:31.516Z,58.67
2019-04-06T11:44:49.161Z,47.50
2019-04-06T11:47:10.832Z,59.53
2019-04-06T11:49:19.037Z,60.67
2019-04-06T11:51:36.760Z,69.20
2019-04-06T11:53:47.728Z,70.93
2019-04-06T11:55:55.961Z,70.00
2019-04-06T11:58:01.449Z,64.30
2019-04-06T12:00:26.566Z,63.25
2019-04-06T12:02:31.620Z,40.87
2019-04-06T12:04:42.929Z,64.10
2019-04-06T12:06:48.473Z,76.93
2019-04-06T12:08:53.934Z,63.13
2019-04-06T12:11:16.203Z,65.60
2019-04-06T12:13:30.504Z,65.63
2019-04-06T12:15:41.712Z,50.17
2019-04-06T12:18:05.313Z,57.73
2019-04-06T12:20:11.191Z,48.77
2019-04-06T12:22:16.654Z,63.63
2019-04-06T12:24:25.284Z,43.93
2019-04-06T12:26:33.492Z,57.90
2019-04-06T12:28:39.000Z,61.67
2019-04-06T12:30:53.552Z,59.23
2019-04-06T12:33:01.834Z,60.00
2019-04-06T12:35:24.676Z,49.10
2019-04-06T12:37:42.549Z,56.63
2019-04-06T12:39:53.453Z,38.27
2019-04-06T12:41:55.243Z,66.50
2019-04-06T12:44:09.766Z,71.80
2019-04-06T12:46:20.949Z,70.43
2019-04-06T12:48:32.149Z,70.10
2019-04-06T12:50:40.618Z,60.80
2019-04-06T12:52:46.139Z,60.60
2019-04-06T12:54:51.641Z,58.83
2019-04-06T12:57:15.513Z,42.37
2019-04-06T12:59:21.210Z,35.47
2019-04-06T13:01:26.686Z,62.70
2019-04-06T13:03:44.248Z,58.73
2019-04-06T13:05:52.711Z,38.83
2019-04-06T13:08:14.939Z,53.60
2019-04-06T13:10:23.380Z,53.37
2019-04-06T13:12:45.064Z,44.43
2019-04-06T13:14:56.802Z,57.37
2019-04-06T13:17:02.431Z,58.70
2019-04-06T13:19:19.766Z,52.27
2019-04-06T13:21:34.259Z,62.20
2019-04-06T13:23:42.869Z,27.40
2019-04-06T13:26:05.201Z,47.47
2019-04-06T13:28:14.398Z,48.30
2019-04-06T13:30:20.269Z,54.73
2019-04-06T13:32:26.106Z,47.30
2019-04-06T13:34:31.644Z,50.60
2019-04-06T13:36:37.182Z,43.83
2019-04-06T13:38:42.654Z,49.63
2019-04-06T13:40:48.134Z,43.60
2019-04-06T13:43:02.980Z,43.53
2019-04-06T13:45:25.679Z,42.33
2019-04-06T13:47:31.651Z,39.73
2019-04-06T13:49:37.737Z,42.70
2019-04-06T13:51:43.346Z,38.60
2019-04-06T13:53:51.537Z,43.37
2019-04-06T13:56:13.292Z,41.47
2019-04-06T13:58:37.458Z,33.17
2019-04-06T14:01:13.846Z,38.30
2019-04-06T14:03:12.152Z,37.30
2019-04-06T14:05:26.621Z,33.93
2019-04-06T14:07:34.922Z,38.63
2019-04-06T14:09:41.257Z,35.67
2019-04-06T14:11:59.116Z,38.40
2019-04-06T14:14:07.347Z,30.97
2019-04-06T14:16:27.928Z,34.20
2019-04-06T14:18:42.426Z,35.73
2019-04-06T14:20:51.157Z,28.37
2019-04-06T14:22:56.653Z,34.03
2019-04-06T14:25:07.971Z,34.37
2019-04-06T14:27:19.572Z,36.43
2019-04-06T14:29:37.086Z,31.10
2019-04-06T14:31:51.794Z,35.57
2019-04-06T14:34:13.224Z,34.33
2019-04-06T14:36:21.370Z,35.23
2019-04-06T14:38:32.833Z,28.50
2019-04-06T14:40:44.181Z,28.93
2019-04-06T14:42:55.435Z,29.30
2019-04-06T14:45:15.937Z,34.93
2019-04-06T14:47:21.694Z,33.00
2019-04-06T14:49:36.850Z,35.87
2019-04-06T14:51:45.253Z,31.73
2019-04-06T14:53:50.762Z,28.23
2019-04-06T14:56:13.314Z,27.57
2019-04-06T14:58:22.284Z,28.67
2019-04-06T15:00:36.676Z,26.17
2019-04-06T15:03:00.608Z,24.23
2019-04-06T15:05:22.727Z,27.17
2019-04-06T15:07:37.252Z,29.67
2019-04-06T15:09:42.800Z,29.33
2019-04-06T15:11:54.819Z,22.07
2019-04-06T15:14:16.665Z,27.17
2019-04-06T15:16:22.156Z,28.07
2019-04-06T15:18:44.091Z,28.27
2019-04-06T15:20:50.002Z,29.03
2019-04-06T15:22:55.656Z,31.57
2019-04-06T15:25:12.318Z,29.37
2019-04-06T15:27:23.633Z,28.20
2019-04-06T15:29:38.725Z,29.97
2019-04-06T15:31:49.840Z,24.03
2019-04-06T15:33:54.289Z,25.17
2019-04-06T15:36:02.273Z,23.13
2019-04-06T15:38:16.954Z,18.77
2019-04-06T15:40:31.693Z,25.93
2019-04-06T15:42:53.652Z,26.87
2019-04-06T15:44:59.456Z,19.23
2019-04-06T15:47:07.613Z,21.77
2019-04-06T15:49:16.049Z,23.37
2019-04-06T15:51:37.081Z,21.17
2019-04-06T15:54:01.099Z,23.40
2019-04-06T15:56:05.972Z,23.27
2019-04-06T15:58:29.953Z,23.43
2019-04-06T16:00:38.137Z,21.43
2019-04-06T16:02:52.735Z,25.87
2019-04-06T16:05:13.440Z,22.17
2019-04-06T16:07:33.387Z,24.00
2019-04-06T16:09:44.157Z,25.20
2019-04-06T16:12:05.946Z,21.47
2019-04-06T16:14:11.447Z,23.23
2019-04-06T16:16:17.071Z,23.40
2019-04-06T16:18:28.403Z,19.90
2019-04-06T16:20:49.728Z,18.90
2019-04-06T16:23:07.659Z,22.10
2019-04-06T16:25:13.295Z,21.67
2019-04-06T16:27:21.608Z,21.43
2019-04-06T16:29:27.144Z,20.60
2019-04-06T16:31:44.568Z,15.80
2019-04-06T16:33:56.430Z,21.53
2019-04-06T16:36:02.112Z,19.47
2019-04-06T16:38:13.594Z,16.57
2019-04-06T16:40:37.312Z,20.10
2019-04-06T16:42:59.575Z,15.70
2019-04-06T16:45:21.650Z,19.17
2019-04-06T16:47:43.707Z,19.27
2019-04-06T16:49:57.920Z,14.70
2019-04-06T16:52:03.606Z,14.43
2019-04-06T16:54:21.305Z,20.30
2019-04-06T16:56:29.974Z,15.20
2019-04-06T16:58:38.340Z,16.00
2019-04-06T17:00:50.021Z,20.07
2019-04-06T17:03:12.110Z,17.63
2019-04-06T17:05:33.140Z,16.60
2019-04-06T17:07:44.181Z,15.17
2019-04-06T17:09:58.817Z,13.57
2019-04-06T17:12:19.850Z,14.87
2019-04-06T17:14:25.398Z,17.60
2019-04-06T17:16:46.510Z,15.77
2019-04-06T17:18:52.051Z,19.33
2019-04-06T17:21:00.611Z,18.40
2019-04-06T17:23:22.363Z,14.93
2019-04-06T17:25:46.379Z,17.53
2019-04-06T17:28:00.874Z,17.57
2019-04-06T17:30:08.325Z,21.27
2019-04-06T17:32:33.939Z,14.93
2019-04-06T17:34:32.617Z,17.47
2019-04-06T17:36:54.990Z,19.77
2019-04-06T17:39:13.160Z,20.00
2019-04-06T17:41:24.896Z,15.00
2019-04-06T17:43:39.513Z,13.67
2019-04-06T17:45:50.890Z,18.50
2019-04-06T17:47:56.434Z,20.13
2019-04-06T17:50:01.968Z,20.63
2019-04-06T17:52:25.352Z,19.23
2019-04-06T17:54:32.071Z,17.27
2019-04-06T17:56:37.637Z,16.53
2019-04-06T17:58:59.485Z,20.90
2019-04-06T18:01:07.852Z,18.13
2019-04-06T18:03:13.455Z,19.50
2019-04-06T18:05:19.034Z,20.40
2019-04-06T18:07:33.257Z,19.67
2019-04-06T18:09:41.488Z,17.47
2019-04-06T18:11:58.873Z,19.13
2019-04-06T18:14:03.046Z,17.87
2019-04-06T18:16:07.129Z,19.60
2019-04-06T18:18:11.010Z,22.10
2019-04-06T18:20:15.068Z,17.57
2019-04-06T18:22:19.346Z,21.93
2019-04-06T18:24:23.381Z,15.60
2019-04-06T18:26:27.365Z,20.47
2019-04-06T18:28:31.746Z,20.93
2019-04-06T18:30:36.082Z,15.33
2019-04-06T18:32:44.332Z,19.50
2019-04-06T18:34:48.243Z,20.20
2019-04-06T18:36:53.728Z,17.27
2019-04-06T18:39:08.400Z,18.30
2019-04-06T18:41:12.285Z,18.90
2019-04-06T18:43:16.210Z,23.40
2019-04-06T18:45:20.111Z,20.00
2019-04-06T18:47:24.187Z,14.37
2019-04-06T18:49:28.367Z,20.87
2019-04-06T18:51:32.242Z,20.23
2019-04-06T18:53:37.048Z,23.47
2019-04-06T18:55:41.098Z,20.90
2019-04-06T18:57:45.146Z,20.50
2019-04-06T18:59:49.226Z,18.83
2019-04-06T19:01:53.133Z,21.97
2019-04-06T19:03:57.435Z,16.87
2019-04-06T19:06:01.449Z,20.23
2019-04-06T19:08:05.344Z,21.50
2019-04-06T19:10:09.513Z,17.17
2019-04-06T19:12:13.493Z,19.17
2019-04-06T19:14:20.305Z,20.03
2019-04-06T19:16:24.296Z,23.30
2019-04-06T19:18:28.437Z,22.07
2019-04-06T19:20:32.494Z,27.90
2019-04-06T19:22:36.415Z,25.23
2019-04-06T19:24:40.619Z,30.70
2019-04-06T19:26:44.653Z,26.70
2019-04-06T19:28:48.545Z,23.83
2019-04-06T19:30:52.491Z,20.97
2019-04-06T19:32:56.369Z,29.07
2019-04-06T19:35:01.132Z,24.53
2019-04-06T19:37:05.195Z,21.43
2019-04-06T19:39:12.045Z,22.30
2019-04-06T19:41:15.989Z,22.63
2019-04-06T19:43:19.873Z,25.10
2019-04-06T19:45:23.811Z,22.77
2019-04-06T19:47:27.906Z,28.60
2019-04-06T19:49:32.000Z,23.40
2019-04-06T19:51:36.498Z,22.87
2019-04-06T19:53:40.814Z,24.50
2019-04-06T19:55:44.933Z,23.20
2019-04-06T19:57:49.594Z,25.53
2019-04-06T19:59:53.915Z,24.97
2019-04-06T20:01:57.894Z,27.83
2019-04-06T20:04:01.794Z,25.80
2019-04-06T20:06:05.697Z,25.37
2019-04-06T20:08:09.780Z,29.40
2019-04-06T20:10:13.924Z,30.00
2019-04-06T20:12:17.881Z,31.97
2019-04-06T20:14:21.937Z,32.33
2019-04-06T20:16:26.375Z,31.67
2019-04-06T20:18:30.459Z,30.33
2019-04-06T20:20:34.396Z,27.70
2019-04-06T20:22:38.306Z,31.40
2019-04-06T20:24:42.253Z,21.53
2019-04-06T20:26:46.511Z,22.20
2019-04-06T20:28:50.511Z,26.43
2019-04-06T20:30:54.491Z,24.20
2019-04-06T20:32:58.392Z,20.90
2019-04-06T20:35:02.431Z,25.60
2019-04-06T20:37:06.528Z,23.43
2019-04-06T20:39:10.524Z,22.97
2019-04-06T20:41:14.463Z,25.93
2019-04-06T20:43:18.580Z,23.80
2019-04-06T20:45:22.520Z,22.43
2019-04-06T20:47:26.726Z,20.33
2019-04-06T20:49:30.864Z,24.23
2019-04-06T20:51:34.780Z,21.83
2019-04-06T20:53:38.688Z,28.27
2019-04-06T20:55:43.091Z,28.43
2019-04-06T20:57:47.507Z,30.07
2019-04-06T20:59:51.420Z,34.80
2019-04-06T21:01:55.357Z,33.90
2019-04-06T21:04:02.649Z,28.50
2019-04-06T21:06:05.181Z,28.70
2019-04-06T21:08:09.138Z,29.97
2019-04-06T21:10:13.751Z,28.27
2019-04-06T21:12:18.208Z,26.87
2019-04-06T21:14:22.228Z,28.70
2019-04-06T21:16:26.561Z,31.80
2019-04-06T21:18:31.004Z,31.07
2019-04-06T21:20:34.984Z,35.07
2019-04-06T21:22:38.913Z,40.97
2019-04-06T21:24:42.939Z,41.10
2019-04-06T21:26:46.917Z,44.97
2019-04-06T21:28:50.890Z,46.37
2019-04-06T21:30:54.954Z,43.63
2019-04-06T21:32:59.948Z,47.63
2019-04-06T21:35:05.996Z,46.33
2019-04-06T21:37:09.916Z,46.17
2019-04-06T21:39:14.226Z,46.03
2019-04-06T21:41:18.678Z,51.77
2019-04-06T21:43:22.604Z,48.40
2019-04-06T21:45:26.469Z,50.63
2019-04-06T21:47:30.799Z,48.57
2019-04-06T21:49:34.825Z,44.13
2019-04-06T21:51:39.136Z,48.23
2019-04-06T21:53:43.563Z,48.63
2019-04-06T21:55:48.257Z,48.13
2019-04-06T21:57:52.325Z,49.43
2019-04-06T21:59:56.323Z,48.97
2019-04-06T22:02:00.793Z,48.93
2019-04-06T22:04:05.373Z,51.13
2019-04-06T22:06:09.326Z,48.83
2019-04-06T22:08:13.325Z,47.63
2019-04-06T22:10:17.327Z,52.53
2019-04-06T22:12:21.728Z,49.20
2019-04-06T22:14:25.730Z,48.33
2019-04-06T22:16:29.857Z,50.07
2019-04-06T22:18:33.942Z,48.53
2019-04-06T22:20:37.902Z,46.03
2019-04-06T22:22:41.789Z,50.57
2019-04-06T22:24:46.296Z,44.30
2019-04-06T22:26:50.682Z,46.83
2019-04-06T22:28:54.619Z,49.33
2019-04-06T22:30:59.011Z,51.73
2019-04-06T22:33:03.139Z,51.13
2019-04-06T22:35:08.996Z,50.30
2019-04-06T22:37:13.086Z,50.57
2019-04-06T22:39:16.968Z,47.03
2019-04-06T22:41:20.862Z,51.03
2019-04-06T22:43:24.972Z,43.03
2019-04-06T22:45:31.019Z,45.20
2019-04-06T22:47:35.100Z,49.07
2019-04-06T22:49:39.008Z,43.60
2019-04-06T22:51:43.440Z,47.90
2019-04-06T22:53:47.612Z,50.63
2019-04-06T22:55:51.573Z,47.37
2019-04-06T22:57:55.748Z,46.33
2019-04-06T22:59:59.713Z,49.43
2019-04-06T23:02:04.357Z,45.07
2019-04-06T23:04:27.893Z,52.30
2019-04-06T23:06:36.667Z,46.67
2019-04-06T23:08:40.648Z,49.17
2019-04-06T23:10:44.554Z,45.13
2019-04-06T23:12:48.700Z,42.63
2019-04-06T23:14:53.703Z,44.50
2019-04-06T23:16:57.807Z,47.67
2019-04-06T23:19:01.877Z,48.47
2019-04-06T23:21:06.471Z,45.17
2019-04-06T23:23:10.572Z,44.33
2019-04-06T23:25:14.976Z,44.10
2019-04-06T23:27:19.262Z,42.53
2019-04-06T23:29:23.420Z,49.97
2019-04-06T23:31:27.930Z,48.57
2019-04-06T23:33:31.998Z,39.10
2019-04-06T23:35:35.988Z,37.00
2019-04-06T23:37:40.364Z,32.90
2019-04-06T23:39:44.412Z,40.37
2019-04-06T23:41:48.469Z,45.60
2019-04-06T23:43:53.049Z,42.40
2019-04-06T23:45:57.165Z,42.50
2019-04-06T23:48:01.573Z,41.43
2019-04-06T23:50:07.602Z,44.88
2019-04-06T23:52:12.041Z,44.20
2019-04-06T23:54:16.049Z,42.97
2019-04-06T23:56:20.503Z,43.67
2019-04-06T23:58:24.593Z,40.90
